Sheldonville, Massachusetts
Current Conditions -  °F | °C
As of 10:35 PM on Friday 19 Dec 2014 (Local Time) from KSFZ Reporting Station
Clear Clear  
Wind Chill: 25°   Ceiling: Unl
Heat Index: 25°   Visibility: 10mi
Dew Point: 14°   Wind: 3mph
Humidity: 64%   Direction: 350°N
Pressure: 30.1"   Gusts: NA
Location:  42.03°N, 71.39°W
Report Text: KSFZ 200335Z 35003KT 10SM CLR M04/M10 A3010 RMK AO1
Loading
Personal Weather Stations






























Interactive Weather Map New forecast layout! Learn more

10-Day Weather Forecast

Advertisements
Track Severe Weather on mobile